createdAt,value
2022-08-14T04:04:02.499Z,13.40
2022-08-14T04:09:07.717Z,15.55
2022-08-14T04:14:15.187Z,12.40
2022-08-14T04:19:20.564Z,14.95
2022-08-14T04:24:23.746Z,14.20
2022-08-14T04:29:28.465Z,18.27
2022-08-14T04:34:41.840Z,10.70
2022-08-14T04:40:03.360Z,13.40
2022-08-14T04:45:06.303Z,12.77
2022-08-14T04:50:08.867Z,11.50
2022-08-14T04:55:11.296Z,13.45
2022-08-14T05:00:16.267Z,11.18
2022-08-14T05:05:21.028Z,16.08
2022-08-14T05:10:32.311Z,20.70
2022-08-14T05:15:36.535Z,13.65
2022-08-14T05:21:59.334Z,11.80
2022-08-14T05:26:14.877Z,13.67
2022-08-14T05:31:20.518Z,12.00
2022-08-14T05:36:23.840Z,14.10
2022-08-14T05:41:27.732Z,12.30
2022-08-14T05:46:49.151Z,18.13
2022-08-14T05:51:52.049Z,11.95
2022-08-14T05:56:55.153Z,10.77
2022-08-14T06:01:57.589Z,14.45
2022-08-14T06:07:00.484Z,17.77
2022-08-14T06:12:04.477Z,10.90
2022-08-14T06:17:07.752Z,10.73
2022-08-14T06:22:10.203Z,11.50
2022-08-14T06:27:15.181Z,22.13
2022-08-14T06:32:38.519Z,12.75
2022-08-14T06:37:45.156Z,16.17
2022-08-14T06:42:50.002Z,10.88
2022-08-14T06:47:53.724Z,15.50
2022-08-14T06:52:56.177Z,11.73
2022-08-14T06:57:58.473Z,11.10
2022-08-14T07:03:21.777Z,12.27
2022-08-14T07:08:31.134Z,14.38
2022-08-14T07:13:34.001Z,13.25
2022-08-14T07:18:37.319Z,9.13
2022-08-14T07:23:44.102Z,9.52
2022-08-14T07:28:46.748Z,11.85
2022-08-14T07:33:51.078Z,14.80
2022-08-14T07:38:54.563Z,9.88
2022-08-14T07:44:00.857Z,10.30
2022-08-14T07:49:24.227Z,10.18
2022-08-14T07:54:30.228Z,11.38
2022-08-14T07:59:41.205Z,11.73
2022-08-14T08:04:47.023Z,11.63
2022-08-14T08:09:56.039Z,11.10
2022-08-14T08:15:03.023Z,7.78
2022-08-14T08:20:12.795Z,12.05
2022-08-14T08:25:17.965Z,9.38
2022-08-14T08:30:21.512Z,6.88
2022-08-14T08:35:46.278Z,7.18
2022-08-14T08:40:50.590Z,8.88
2022-08-14T08:46:06.988Z,5.57
2022-08-14T08:51:31.226Z,7.68
2022-08-14T08:56:41.327Z,12.23
2022-08-14T09:01:56.176Z,5.50
2022-08-14T09:07:10.000Z,8.48
2022-08-14T09:12:15.179Z,7.45
2022-08-14T09:17:17.650Z,9.52
2022-08-14T09:22:35.681Z,11.30
2022-08-14T09:27:39.729Z,8.63
2022-08-14T09:33:11.776Z,5.70
2022-08-14T09:38:42.883Z,12.35
2022-08-14T09:43:48.946Z,9.60
2022-08-14T09:49:29.693Z,5.70
2022-08-14T09:54:38.696Z,11.48
2022-08-14T09:59:46.466Z,5.88
2022-08-14T10:05:28.753Z,6.13
2022-08-14T10:10:41.619Z,9.07
2022-08-14T10:15:46.028Z,5.65
2022-08-14T10:20:57.853Z,7.22
2022-08-14T10:26:06.092Z,6.43
2022-08-14T10:31:29.590Z,9.95
2022-08-14T10:36:47.531Z,6.82
2022-08-14T10:42:04.495Z,5.60
2022-08-14T10:47:40.604Z,5.93
2022-08-14T10:52:43.431Z,17.33
2022-08-14T10:57:52.593Z,9.63
2022-08-14T11:03:01.752Z,5.78
2022-08-14T11:08:09.165Z,9.57
2022-08-14T11:13:23.772Z,7.28
2022-08-14T11:18:32.007Z,5.93
2022-08-14T11:23:41.164Z,6.22
2022-08-14T11:28:50.229Z,4.13
2022-08-14T11:33:59.356Z,4.30
2022-08-14T11:39:01.885Z,5.22
2022-08-14T11:44:13.060Z,6.55
2022-08-14T11:49:34.089Z,7.25
2022-08-14T11:54:37.542Z,5.57
2022-08-14T11:59:44.274Z,5.45
2022-08-14T12:04:52.273Z,4.83
2022-08-14T12:09:56.811Z,4.78
2022-08-14T12:15:00.500Z,4.78
2022-08-14T12:20:06.431Z,5.65
2022-08-14T12:25:14.671Z,4.18
2022-08-14T12:30:35.954Z,4.72
2022-08-14T12:35:44.887Z,7.07
2022-08-14T12:40:56.103Z,4.47
2022-08-14T12:45:58.690Z,7.85
2022-08-14T12:51:01.008Z,4.18
2022-08-14T12:56:22.485Z,3.67
2022-08-14T13:01:56.579Z,3.58
2022-08-14T13:06:54.076Z,5.13
2022-08-14T13:11:58.475Z,6.75
2022-08-14T13:17:20.755Z,6.75
2022-08-14T13:22:33.466Z,4.85
2022-08-14T13:27:39.399Z,3.85
2022-08-14T13:32:45.215Z,7.82
2022-08-14T13:37:49.903Z,5.57
2022-08-14T13:42:57.232Z,5.70
2022-08-14T13:47:59.760Z,8.13
2022-08-14T13:53:03.775Z,4.57
2022-08-14T13:58:06.884Z,4.30
2022-08-14T14:03:34.976Z,6.57
2022-08-14T14:08:53.710Z,6.90
2022-08-14T14:13:58.545Z,8.50
2022-08-14T14:19:08.742Z,5.75
2022-08-14T14:24:15.386Z,5.82
2022-08-14T14:29:26.046Z,4.20
2022-08-14T14:34:33.310Z,8.35
2022-08-14T14:39:37.932Z,7.25
2022-08-14T14:45:05.056Z,6.28
2022-08-14T14:50:11.264Z,6.95
2022-08-14T14:55:16.843Z,6.25
2022-08-14T15:00:20.171Z,5.30
2022-08-14T15:05:23.249Z,3.70
2022-08-14T15:15:37.895Z,5.45
2022-08-14T15:20:42.051Z,8.70
2022-08-14T15:25:53.107Z,8.55
2022-08-14T15:30:58.987Z,5.03
2022-08-14T15:36:03.031Z,5.40
2022-08-14T15:41:08.596Z,3.45
2022-08-14T15:46:41.350Z,7.93
2022-08-14T15:51:36.745Z,3.80
2022-08-14T15:56:45.427Z,7.47
2022-08-14T16:01:54.689Z,4.10
2022-08-14T16:06:57.514Z,4.05
2022-08-14T16:11:59.892Z,4.18
2022-08-14T16:17:04.424Z,8.32
2022-08-14T16:22:58.380Z,4.22
2022-08-14T16:27:40.771Z,5.72
2022-08-14T16:32:54.970Z,5.00
2022-08-14T16:38:00.369Z,5.55
2022-08-14T16:43:26.023Z,7.85
2022-08-14T16:48:55.635Z,4.43
2022-08-14T16:53:54.621Z,7.88
2022-08-14T16:59:12.115Z,5.63
2022-08-14T17:04:24.759Z,4.55
2022-08-14T17:10:09.361Z,4.85
2022-08-14T17:15:14.918Z,4.10
2022-08-14T17:20:51.524Z,7.65
2022-08-14T17:25:49.446Z,8.35
2022-08-14T17:30:56.838Z,7.65
2022-08-14T17:36:21.020Z,9.80
2022-08-14T17:41:26.981Z,38.83
2022-08-14T17:46:49.973Z,8.93
2022-08-14T17:52:17.231Z,6.03
2022-08-14T17:57:24.395Z,6.85
2022-08-14T18:02:31.928Z,9.23
2022-08-14T18:07:59.924Z,6.93
2022-08-14T18:12:59.133Z,6.53
2022-08-14T18:18:09.137Z,11.02
2022-08-14T18:23:12.880Z,7.35
2022-08-14T18:28:51.761Z,12.00
2022-08-14T18:33:51.949Z,10.50
2022-08-14T18:39:29.756Z,7.70
2022-08-14T18:44:50.607Z,6.90
2022-08-14T18:49:52.925Z,7.60
2022-08-14T18:54:59.661Z,8.32
2022-08-14T19:00:33.835Z,8.18
2022-08-14T19:05:47.311Z,11.20
2022-08-14T19:10:59.368Z,10.43
2022-08-14T19:16:23.351Z,11.55
2022-08-14T19:21:34.323Z,11.32
2022-08-14T19:26:54.189Z,10.30
2022-08-14T19:31:59.725Z,11.10
2022-08-14T19:37:06.044Z,9.68
2022-08-14T19:42:14.885Z,15.70
2022-08-14T19:47:41.087Z,10.50
2022-08-14T19:52:45.907Z,13.93
2022-08-14T19:57:58.335Z,16.00
2022-08-14T20:03:14.258Z,11.85
2022-08-14T20:10:59.135Z,12.75
2022-08-14T20:13:45.209Z,12.15
2022-08-14T20:18:50.234Z,8.57
2022-08-14T20:24:31.255Z,4.93
2022-08-14T20:29:39.039Z,8.50
2022-08-14T20:34:51.426Z,16.65
2022-08-14T20:39:55.619Z,58.25
2022-08-14T20:45:18.911Z,26.75
2022-08-14T20:50:28.658Z,42.35
2022-08-14T20:55:37.283Z,38.78
2022-08-14T21:00:51.869Z,31.25
2022-08-14T21:05:58.899Z,16.23
2022-08-14T21:11:02.285Z,16.90
2022-08-14T21:16:33.420Z,16.55
2022-08-14T21:21:41.547Z,24.23
2022-08-14T21:26:52.652Z,21.45
2022-08-14T21:32:20.505Z,22.40
2022-08-14T21:37:23.672Z,19.65
2022-08-14T21:42:27.960Z,13.45
2022-08-14T21:47:30.452Z,16.13
2022-08-14T21:52:52.257Z,37.47
2022-08-14T21:58:51.280Z,25.50
